Time;durP1;ratioP1;P1;durP2;ratioP2;P2;SDS_P1;SDS_P2;PMS_P1;PMS_P2;Temp;Humidity;BMP_temperature;BMP_pressure;BME280_temperature;BME280_humidity;BME280_pressure;Samples;Min_cycle;Max_cycle;Signal;HPM_P1;HPM_P2
2021/11/12 00:04:10;;;;;;;9.05;8.23;;;;;;;;;;4970768;28;20205;-79
2021/11/12 00:12:27;;;;;;;14.25;10.52;;;;;;;;;;4971543;28;20745;-79
2021/11/12 00:14:55;;;;;;;11.75;10.32;;;;;;;;;;4974078;28;20289;-79
2021/11/12 00:17:29;;;;;;;11.00;8.93;;;;;;;;;;4964596;28;20220;-78
2021/11/12 00:19:58;;;;;;;15.30;10.05;;;;;;;;;;4959665;28;20197;-79
2021/11/12 00:22:26;;;;;;;12.70;10.57;;;;;;;;;;4971465;28;20208;-79
2021/11/12 00:24:54;;;;;;;13.93;11.45;;;;;;;;;;4965521;28;20205;-78
2021/11/12 00:27:22;;;;;;;13.02;10.13;;;;;;;;;;4954265;28;20888;-79
2021/11/12 00:29:56;;;;;;;12.25;10.25;;;;;;;;;;4961107;28;20284;-79
2021/11/12 00:32:33;;;;;;;10.30;8.23;;;;;;;;;;4970715;28;20324;-79
2021/11/12 00:35:16;;;;;;;14.05;9.95;;;;;;;;;;4966985;28;20233;-79
2021/11/12 00:37:52;;;;;;;14.20;10.70;;;;;;;;;;4965373;28;20204;-78
2021/11/12 00:40:22;;;;;;;12.05;10.07;;;;;;;;;;4964866;28;20244;-78
2021/11/12 00:43:06;;;;;;;11.65;10.05;;;;;;;;;;4971902;28;20236;-77
2021/11/12 00:45:40;;;;;;;11.80;8.85;;;;;;;;;;4963678;28;20205;-78
2021/11/12 00:48:14;;;;;;;12.15;9.15;;;;;;;;;;4953988;28;20206;-78
2021/11/12 00:50:57;;;;;;;13.90;9.93;;;;;;;;;;4958247;28;20209;-77
2021/11/12 00:56:11;;;;;;;10.77;8.63;;;;;;;;;;4973027;28;20745;-77
2021/11/12 00:58:38;;;;;;;14.82;10.38;;;;;;;;;;4968299;28;20198;-78
2021/11/12 01:01:05;;;;;;;13.57;10.07;;;;;;;;;;4969457;28;20741;-77
2021/11/12 01:03:33;;;;;;;10.02;9.00;;;;;;;;;;4975177;28;20208;-78
2021/11/12 01:06:00;;;;;;;12.45;9.50;;;;;;;;;;4972250;28;20277;-79
2021/11/12 01:08:29;;;;;;;16.92;10.57;;;;;;;;;;4967565;28;20687;-78
2021/11/12 01:10:56;;;;;;;17.27;12.02;;;;;;;;;;4964881;28;20205;-78
2021/11/12 01:13:23;;;;;;;14.55;10.73;;;;;;;;;;4971979;28;20237;-79
2021/11/12 01:15:50;;;;;;;16.73;10.68;;;;;;;;;;4972003;28;20201;-79
2021/11/12 01:18:17;;;;;;;13.30;9.95;;;;;;;;;;4962501;28;20209;-78
2021/11/12 01:20:45;;;;;;;11.90;9.75;;;;;;;;;;4970996;28;20647;-78
2021/11/12 01:23:12;;;;;;;12.10;9.25;;;;;;;;;;4969761;28;20229;-77
2021/11/12 01:25:41;;;;;;;16.80;12.80;;;;;;;;;;4966175;28;20205;-79
2021/11/12 01:28:08;;;;;;;12.73;10.27;;;;;;;;;;4970621;28;20611;-78
2021/11/12 01:30:36;;;;;;;12.95;10.07;;;;;;;;;;4968548;28;20198;-78
2021/11/12 01:33:03;;;;;;;10.65;9.02;;;;;;;;;;4967945;28;20198;-79
2021/11/12 01:35:31;;;;;;;11.23;9.13;;;;;;;;;;4972522;28;20642;-78
2021/11/12 01:37:59;;;;;;;12.50;9.55;;;;;;;;;;4971491;28;20201;-79
2021/11/12 01:40:27;;;;;;;11.68;7.40;;;;;;;;;;4971371;28;20651;-78
2021/11/12 01:42:59;;;;;;;11.48;8.30;;;;;;;;;;4971087;28;20205;-78
2021/11/12 01:45:35;;;;;;;14.75;8.77;;;;;;;;;;4965987;28;20289;-79
2021/11/12 01:48:15;;;;;;;11.63;9.65;;;;;;;;;;4966656;28;20205;-78
2021/11/12 01:50:45;;;;;;;11.68;9.13;;;;;;;;;;4971123;28;20256;-78
2021/11/12 01:53:13;;;;;;;15.50;9.18;;;;;;;;;;4969408;28;20197;-78
2021/11/12 01:55:44;;;;;;;10.60;9.48;;;;;;;;;;4967601;28;20208;-78
2021/11/12 01:58:27;;;;;;;12.02;10.50;;;;;;;;;;4972108;28;20201;-78
2021/11/12 02:00:54;;;;;;;13.27;10.02;;;;;;;;;;4969903;28;20248;-78
2021/11/12 02:03:22;;;;;;;13.38;11.07;;;;;;;;;;4971822;28;20567;-78
2021/11/12 02:05:49;;;;;;;12.90;11.52;;;;;;;;;;4982323;28;20197;-78
2021/11/12 02:08:16;;;;;;;12.60;9.60;;;;;;;;;;4969483;28;20217;-78
2021/11/12 02:10:43;;;;;;;11.98;10.00;;;;;;;;;;4953081;28;20213;-77
2021/11/12 02:13:16;;;;;;;14.07;10.40;;;;;;;;;;4971998;28;20205;-78
2021/11/12 02:15:44;;;;;;;11.77;9.32;;;;;;;;;;4967474;28;20201;-77
2021/11/12 02:18:15;;;;;;;15.07;9.98;;;;;;;;;;4968853;28;20202;-78
2021/11/12 02:20:56;;;;;;;13.00;10.07;;;;;;;;;;4967436;28;20256;-77
2021/11/12 02:23:29;;;;;;;12.40;8.98;;;;;;;;;;4971154;28;20562;-77
2021/11/12 02:25:57;;;;;;;12.55;9.93;;;;;;;;;;4975194;28;20204;-78
2021/11/12 02:28:26;;;;;;;14.60;10.98;;;;;;;;;;4974859;28;20214;-77
2021/11/12 02:30:53;;;;;;;9.88;8.20;;;;;;;;;;4970765;28;20260;-77
2021/11/12 02:33:21;;;;;;;12.15;9.07;;;;;;;;;;4967291;28;20201;-78
2021/11/12 02:36:01;;;;;;;12.35;9.95;;;;;;;;;;4967278;28;20206;-78
2021/11/12 02:38:29;;;;;;;13.10;8.80;;;;;;;;;;4966913;28;20201;-78
2021/11/12 02:40:56;;;;;;;18.15;11.63;;;;;;;;;;4974924;28;20205;-79
2021/11/12 02:43:24;;;;;;;13.30;10.07;;;;;;;;;;4960344;28;20627;-79
2021/11/12 02:45:52;;;;;;;20.48;14.00;;;;;;;;;;4966548;28;20241;-78
2021/11/12 02:48:20;;;;;;;13.77;11.80;;;;;;;;;;4962101;28;20197;-79
2021/11/12 02:50:47;;;;;;;16.25;9.38;;;;;;;;;;4974074;28;20205;-79
2021/11/12 02:53:17;;;;;;;16.15;11.55;;;;;;;;;;4972481;28;20198;-78
2021/11/12 02:55:45;;;;;;;16.10;10.18;;;;;;;;;;4956286;28;20209;-79
2021/11/12 02:58:13;;;;;;;10.75;8.20;;;;;;;;;;4958241;28;20300;-79
2021/11/12 03:00:41;;;;;;;15.60;11.55;;;;;;;;;;4969682;28;20218;-79
2021/11/12 03:03:08;;;;;;;12.10;10.05;;;;;;;;;;4971594;28;20229;-79
2021/11/12 03:05:36;;;;;;;14.05;9.70;;;;;;;;;;4980978;28;20194;-78
2021/11/12 03:08:04;;;;;;;13.82;10.52;;;;;;;;;;4965736;28;20691;-79
2021/11/12 03:10:33;;;;;;;12.13;9.85;;;;;;;;;;4956582;28;20190;-78
2021/11/12 03:13:00;;;;;;;13.07;10.30;;;;;;;;;;4970916;28;20257;-79
2021/11/12 03:15:27;;;;;;;13.43;10.00;;;;;;;;;;4973473;28;20189;-75
2021/11/12 03:17:56;;;;;;;14.15;9.10;;;;;;;;;;4969983;28;20194;-75
2021/11/12 03:20:24;;;;;;;20.13;11.48;;;;;;;;;;4956490;28;20217;-75
2021/11/12 03:22:55;;;;;;;15.18;10.75;;;;;;;;;;4974480;28;20217;-75
2021/11/12 03:25:31;;;;;;;13.80;10.00;;;;;;;;;;4971166;28;20198;-75
2021/11/12 03:28:10;;;;;;;11.07;9.18;;;;;;;;;;4972677;28;20224;-75
2021/11/12 03:49:38;;;;;;;16.02;11.52;;;;;;;;;;4972757;28;20212;-75
2021/11/12 04:01:31;;;;;;;15.00;10.88;;;;;;;;;;4938332;28;20221;-75
2021/11/12 04:03:59;;;;;;;12.43;9.30;;;;;;;;;;4965029;28;20196;-75
2021/11/12 04:06:37;;;;;;;19.23;11.07;;;;;;;;;;4971246;28;20201;-76
2021/11/12 04:17:36;;;;;;;12.77;10.20;;;;;;;;;;4970554;28;20611;-76
2021/11/12 04:20:33;;;;;;;15.63;12.55;;;;;;;;;;4972387;28;20567;-75
2021/11/12 05:13:07;;;;;;;15.50;11.63;;;;;;;;;;4964656;28;20220;-76
2021/11/12 05:51:35;;;;;;;15.85;12.13;;;;;;;;;;4960817;28;20638;-77
2021/11/12 05:56:49;;;;;;;13.73;10.50;;;;;;;;;;4972971;28;20192;-76
2021/11/12 05:59:17;;;;;;;11.93;10.13;;;;;;;;;;4963835;28;20200;-75
2021/11/12 06:01:45;;;;;;;14.32;11.18;;;;;;;;;;4969528;28;20221;-75
2021/11/12 06:04:12;;;;;;;19.63;10.95;;;;;;;;;;4978139;28;20194;-75
2021/11/12 06:06:40;;;;;;;12.65;10.82;;;;;;;;;;4982030;28;20679;-75
2021/11/12 06:09:07;;;;;;;14.90;10.10;;;;;;;;;;4968640;28;20214;-75
2021/11/12 06:11:35;;;;;;;15.30;10.80;;;;;;;;;;4966353;28;20208;-75
2021/11/12 06:14:04;;;;;;;12.45;11.13;;;;;;;;;;4975363;28;20589;-75
2021/11/12 06:16:31;;;;;;;13.75;11.20;;;;;;;;;;4977391;28;20205;-76
2021/11/12 06:18:58;;;;;;;14.63;10.30;;;;;;;;;;4972889;28;20676;-75
2021/11/12 06:21:26;;;;;;;13.40;10.48;;;;;;;;;;4966009;28;20559;-76
2021/11/12 06:23:53;;;;;;;12.90;10.00;;;;;;;;;;4969988;28;20198;-76
2021/11/12 06:26:21;;;;;;;12.27;9.23;;;;;;;;;;4975995;28;20201;-77
2021/11/12 06:28:49;;;;;;;12.00;10.68;;;;;;;;;;4971516;28;20271;-76
2021/11/12 06:31:19;;;;;;;15.88;10.45;;;;;;;;;;4972229;28;20201;-76
2021/11/12 06:33:46;;;;;;;12.02;10.50;;;;;;;;;;4972178;28;20193;-76
2021/11/12 06:36:14;;;;;;;17.15;14.40;;;;;;;;;;4975008;28;20209;-76
2021/11/12 06:38:41;;;;;;;20.88;13.35;;;;;;;;;;4969773;28;20285;-76
2021/11/12 06:41:11;;;;;;;14.02;10.57;;;;;;;;;;4956171;28;20210;-76
2021/11/12 06:43:46;;;;;;;18.98;15.05;;;;;;;;;;4970838;28;20364;-76
2021/11/12 06:49:22;;;;;;;15.82;11.48;;;;;;;;;;4974993;28;20248;-75
2021/11/12 06:51:49;;;;;;;13.75;10.90;;;;;;;;;;4972159;28;20228;-76
2021/11/12 06:54:16;;;;;;;11.70;9.77;;;;;;;;;;4966668;28;20213;-76
2021/11/12 06:56:44;;;;;;;11.80;10.15;;;;;;;;;;4974514;28;20194;-76
2021/11/12 06:59:11;;;;;;;12.48;10.88;;;;;;;;;;4975306;28;20667;-76
2021/11/12 07:01:38;;;;;;;13.13;10.00;;;;;;;;;;4967643;28;20225;-76
2021/11/12 07:04:06;;;;;;;13.80;10.10;;;;;;;;;;4975694;28;20582;-77
2021/11/12 07:06:34;;;;;;;13.10;9.63;;;;;;;;;;4974990;28;20201;-76
2021/11/12 07:09:02;;;;;;;11.25;8.68;;;;;;;;;;4967737;28;20209;-76
2021/11/12 07:11:29;;;;;;;12.73;9.45;;;;;;;;;;4973224;28;20197;-75
2021/11/12 07:13:56;;;;;;;14.18;10.95;;;;;;;;;;4976017;28;20189;-75
2021/11/12 07:16:23;;;;;;;11.38;9.30;;;;;;;;;;4968478;28;20499;-75
2021/11/12 07:18:54;;;;;;;12.68;10.40;;;;;;;;;;4956010;28;20224;-75
2021/11/12 07:21:22;;;;;;;11.73;9.65;;;;;;;;;;4963679;28;20292;-76
2021/11/12 07:23:49;;;;;;;13.63;9.52;;;;;;;;;;4967594;28;20308;-76
2021/11/12 07:26:17;;;;;;;13.68;8.52;;;;;;;;;;4973283;28;20200;-76
2021/11/12 07:28:45;;;;;;;10.32;8.30;;;;;;;;;;4971108;28;20240;-76
2021/11/12 07:31:12;;;;;;;9.13;7.47;;;;;;;;;;4975101;28;20722;-76
2021/11/12 07:33:39;;;;;;;10.18;7.95;;;;;;;;;;4964758;28;20201;-76
2021/11/12 07:36:10;;;;;;;11.07;8.27;;;;;;;;;;4975210;28;20209;-76
2021/11/12 07:38:48;;;;;;;8.63;6.72;;;;;;;;;;4972310;28;20202;-76
2021/11/12 07:41:27;;;;;;;10.15;7.60;;;;;;;;;;4971406;28;20201;-76
2021/11/12 07:44:19;;;;;;;10.27;7.95;;;;;;;;;;4973026;28;20311;-76
2021/11/12 07:46:58;;;;;;;8.13;6.60;;;;;;;;;;4971591;28;20208;-76
2021/11/12 07:49:25;;;;;;;10.80;7.10;;;;;;;;;;4970067;28;20287;-76
2021/11/12 07:51:52;;;;;;;6.93;5.85;;;;;;;;;;4972496;28;20206;-76
2021/11/12 07:54:21;;;;;;;7.25;6.55;;;;;;;;;;4971332;28;20850;-76
2021/11/12 07:56:49;;;;;;;6.15;5.55;;;;;;;;;;4973658;28;20568;-75
2021/11/12 07:59:16;;;;;;;8.23;6.47;;;;;;;;;;4971176;28;20228;-76
2021/11/12 08:01:44;;;;;;;9.20;6.53;;;;;;;;;;4973601;28;20256;-75
2021/11/12 08:04:11;;;;;;;8.23;5.97;;;;;;;;;;4976423;28;20650;-75
2021/11/12 08:06:39;;;;;;;7.18;6.20;;;;;;;;;;4971466;28;20196;-75
2021/11/12 08:09:08;;;;;;;7.88;6.38;;;;;;;;;;4957901;28;20214;-75
2021/11/12 08:11:40;;;;;;;7.45;6.30;;;;;;;;;;4963529;28;20624;-75
2021/11/12 08:14:10;;;;;;;8.38;5.75;;;;;;;;;;4971185;28;20216;-75
2021/11/12 08:19:24;;;;;;;6.32;5.70;;;;;;;;;;4954211;28;20206;-75
2021/11/12 08:21:57;;;;;;;4.75;4.35;;;;;;;;;;4969219;28;20205;-74
2021/11/12 08:24:34;;;;;;;5.00;4.50;;;;;;;;;;4957663;28;20239;-74
2021/11/12 08:27:11;;;;;;;5.75;5.15;;;;;;;;;;4972284;28;20659;-74
2021/11/12 08:29:48;;;;;;;5.38;4.70;;;;;;;;;;4972419;28;20300;-74
2021/11/12 08:32:25;;;;;;;6.28;4.70;;;;;;;;;;4971577;28;20212;-74
2021/11/12 08:35:06;;;;;;;4.80;4.38;;;;;;;;;;4968550;28;20197;-75
2021/11/12 08:40:20;;;;;;;5.38;4.43;;;;;;;;;;4966447;28;20197;-75
2021/11/12 08:42:51;;;;;;;4.93;4.43;;;;;;;;;;4971529;28;20221;-75
2021/11/12 08:45:20;;;;;;;5.03;4.20;;;;;;;;;;4968869;28;20271;-74
2021/11/12 08:47:51;;;;;;;4.47;4.07;;;;;;;;;;4967002;28;20212;-74
2021/11/12 08:50:19;;;;;;;5.47;4.47;;;;;;;;;;4973553;28;20723;-74
2021/11/12 08:52:47;;;;;;;7.97;4.80;;;;;;;;;;4972000;28;20201;-74
2021/11/12 08:55:15;;;;;;;4.93;3.90;;;;;;;;;;4958355;28;20240;-74
2021/11/12 08:57:44;;;;;;;4.25;3.55;;;;;;;;;;4970715;28;20198;-74
2021/11/12 09:00:12;;;;;;;5.40;3.58;;;;;;;;;;4969492;28;20707;-74
2021/11/12 09:02:39;;;;;;;3.92;3.50;;;;;;;;;;4969884;28;20221;-74
2021/11/12 09:05:07;;;;;;;5.10;3.65;;;;;;;;;;4980014;28;20631;-74
2021/11/12 09:07:35;;;;;;;3.83;3.53;;;;;;;;;;4969635;28;20200;-74
2021/11/12 09:10:02;;;;;;;3.55;3.05;;;;;;;;;;4968593;28;20629;-74
2021/11/12 09:12:30;;;;;;;4.05;3.75;;;;;;;;;;4971166;28;20586;-74
2021/11/12 09:14:59;;;;;;;4.40;4.00;;;;;;;;;;4971845;28;20260;-75
2021/11/12 09:17:29;;;;;;;4.05;3.72;;;;;;;;;;4969465;28;20622;-75
2021/11/12 09:20:00;;;;;;;4.13;3.72;;;;;;;;;;4969997;28;20202;-73
2021/11/12 09:22:31;;;;;;;4.43;3.67;;;;;;;;;;4969537;28;20220;-74
2021/11/12 09:24:58;;;;;;;3.30;3.00;;;;;;;;;;4966091;28;20202;-75
2021/11/12 09:27:25;;;;;;;4.32;2.72;;;;;;;;;;4969916;28;20209;-75
2021/11/12 09:29:52;;;;;;;11.93;9.60;;;;;;;;;;4967875;28;20198;-78
2021/11/12 09:32:20;;;;;;;15.00;11.55;;;;;;;;;;4964362;28;20209;-78
2021/11/12 09:34:48;;;;;;;15.73;13.15;;;;;;;;;;4971114;28;20682;-74
2021/11/12 09:37:20;;;;;;;12.65;10.02;;;;;;;;;;4971567;28;20205;-76
2021/11/12 09:39:48;;;;;;;22.67;9.98;;;;;;;;;;4958893;28;20211;-74
2021/11/12 09:42:15;;;;;;;11.52;8.93;;;;;;;;;;4971028;28;20202;-74
2021/11/12 09:44:43;;;;;;;14.13;9.80;;;;;;;;;;4966866;28;20232;-75
2021/11/12 09:47:10;;;;;;;11.75;8.32;;;;;;;;;;4966569;28;20264;-76
2021/11/12 09:49:38;;;;;;;8.52;7.72;;;;;;;;;;4962533;28;20206;-75
2021/11/12 09:52:09;;;;;;;8.13;7.32;;;;;;;;;;4971574;28;20209;-75
2021/11/12 09:54:37;;;;;;;9.30;6.78;;;;;;;;;;4962181;28;20198;-75
2021/11/12 09:57:04;;;;;;;13.27;9.20;;;;;;;;;;4969690;28;20200;-75
2021/11/12 09:59:33;;;;;;;8.25;7.45;;;;;;;;;;4971154;28;20213;-74
2021/11/12 10:02:01;;;;;;;8.48;7.43;;;;;;;;;;4970570;28;20202;-75
2021/11/12 10:04:28;;;;;;;7.78;6.10;;;;;;;;;;4965330;28;20316;-75
2021/11/12 10:06:57;;;;;;;7.38;6.68;;;;;;;;;;4968581;28;20288;-75
2021/11/12 10:09:26;;;;;;;7.47;6.70;;;;;;;;;;4969419;28;20205;-75
2021/11/12 10:11:54;;;;;;;9.15;6.38;;;;;;;;;;4974282;28;20208;-75
2021/11/12 10:14:26;;;;;;;8.50;7.60;;;;;;;;;;4967576;28;20189;-74
2021/11/12 10:16:56;;;;;;;8.10;6.30;;;;;;;;;;4967098;28;20547;-75
2021/11/12 10:19:25;;;;;;;7.75;6.68;;;;;;;;;;4967598;28;20197;-75
2021/11/12 10:21:53;;;;;;;7.65;6.85;;;;;;;;;;4968541;28;20201;-75
2021/11/12 10:24:22;;;;;;;6.13;5.60;;;;;;;;;;4967914;28;20225;-74
2021/11/12 10:26:52;;;;;;;7.30;6.43;;;;;;;;;;4971142;28;20200;-74
2021/11/12 10:29:20;;;;;;;15.32;13.30;;;;;;;;;;4960737;28;20206;-76
2021/11/12 10:31:49;;;;;;;18.02;16.05;;;;;;;;;;4967723;28;20203;-77
2021/11/12 10:34:18;;;;;;;19.13;16.15;;;;;;;;;;4964521;28;20651;-76
2021/11/12 10:36:53;;;;;;;16.17;14.48;;;;;;;;;;4969692;28;20567;-83
2021/11/12 10:39:26;;;;;;;16.95;15.07;;;;;;;;;;4968103;28;20201;-86
2021/11/12 10:41:56;;;;;;;15.00;13.20;;;;;;;;;;4969802;28;20201;-81
2021/11/12 10:44:23;;;;;;;16.42;14.70;;;;;;;;;;4970350;28;20221;-80
2021/11/12 10:46:50;;;;;;;17.08;15.25;;;;;;;;;;4970173;28;20197;-80
2021/11/12 10:49:27;;;;;;;20.65;16.20;;;;;;;;;;4973535;28;20296;-78
2021/11/12 10:51:55;;;;;;;19.92;14.98;;;;;;;;;;4968453;28;20201;-76
2021/11/12 10:54:39;;;;;;;104.05;21.55;;;;;;;;;;4970130;28;20477;-76
2021/11/12 10:57:08;;;;;;;74.10;17.60;;;;;;;;;;4994154;23;20232;-77
2021/11/12 10:59:36;;;;;;;15.73;13.88;;;;;;;;;;4989477;28;20200;-77
2021/11/12 11:02:04;;;;;;;20.13;13.20;;;;;;;;;;4991214;28;20207;-77
2021/11/12 11:04:32;;;;;;;16.08;13.85;;;;;;;;;;4993025;28;20216;-77
2021/11/12 11:07:14;;;;;;;15.40;12.32;;;;;;;;;;4987442;28;20224;-79
2021/11/12 11:09:41;;;;;;;14.90;13.15;;;;;;;;;;4994508;28;20520;-80
2021/11/12 11:12:10;;;;;;;40.72;15.32;;;;;;;;;;4992575;28;20566;-77
2021/11/12 11:14:37;;;;;;;22.63;14.20;;;;;;;;;;4992832;28;20532;-79
2021/11/12 11:17:23;;;;;;;31.95;18.77;;;;;;;;;;4992413;28;20200;-80
2021/11/12 11:19:51;;;;;;;19.77;13.57;;;;;;;;;;4988581;28;20196;-81
2021/11/12 11:22:18;;;;;;;16.65;12.68;;;;;;;;;;4992145;28;20540;-80
2021/11/12 11:24:49;;;;;;;23.50;13.02;;;;;;;;;;4993664;28;20227;-81
2021/11/12 11:27:18;;;;;;;17.13;11.93;;;;;;;;;;4993538;28;20849;-80
2021/11/12 11:29:45;;;;;;;14.98;11.70;;;;;;;;;;4992008;28;20196;-80
2021/11/12 11:32:12;;;;;;;10.85;9.73;;;;;;;;;;4992536;28;20200;-79
2021/11/12 11:34:40;;;;;;;16.33;11.25;;;;;;;;;;5003201;28;20208;-82
2021/11/12 11:37:07;;;;;;;11.05;9.30;;;;;;;;;;4990418;28;20197;-80
2021/11/12 11:39:34;;;;;;;11.60;9.77;;;;;;;;;;4990407;28;20541;-80
2021/11/12 11:42:03;;;;;;;11.63;9.25;;;;;;;;;;4991579;28;20193;-82
2021/11/12 11:44:32;;;;;;;10.27;9.07;;;;;;;;;;4986912;28;20209;-82
2021/11/12 11:47:01;;;;;;;11.73;10.20;;;;;;;;;;4994756;28;20612;-82
2021/11/12 11:49:29;;;;;;;9.98;8.90;;;;;;;;;;4992952;28;20200;-81
2021/11/12 11:51:57;;;;;;;13.98;9.38;;;;;;;;;;4988198;28;20655;-80
2021/11/12 11:54:26;;;;;;;9.23;8.20;;;;;;;;;;4982818;28;20212;-81
2021/11/12 11:56:54;;;;;;;10.65;8.23;;;;;;;;;;4989458;28;20233;-82
2021/11/12 11:59:23;;;;;;;9.48;7.65;;;;;;;;;;4992740;28;20197;-79
2021/11/12 12:01:53;;;;;;;12.45;9.05;;;;;;;;;;4990454;28;20201;-78
2021/11/12 12:04:24;;;;;;;9.10;7.63;;;;;;;;;;4990044;28;20220;-80
2021/11/12 12:07:10;;;;;;;9.27;7.40;;;;;;;;;;4982404;28;20243;-80
2021/11/12 12:09:41;;;;;;;8.07;6.63;;;;;;;;;;4985527;28;20275;-80
2021/11/12 12:12:10;;;;;;;9.40;7.85;;;;;;;;;;4989230;28;20207;-80
2021/11/12 12:14:37;;;;;;;7.45;6.20;;;;;;;;;;4987655;28;20287;-79
2021/11/12 12:17:10;;;;;;;8.63;7.70;;;;;;;;;;4995827;28;20212;-80
2021/11/12 12:19:42;;;;;;;6.88;5.95;;;;;;;;;;4989576;28;20201;-78
2021/11/12 12:30:52;;;;;;;9.15;6.90;;;;;;;;;;4991057;28;20255;-79
2021/11/12 12:31:14;;;;;;;8.32;5.93;;;;;;;;;;4988456;28;20227;-81
2021/11/12 12:34:02;;;;;;;7.70;6.55;;;;;;;;;;4990496;28;20426;-83
2021/11/12 13:22:03;;;;;;;6.20;4.72;;;;;;;;;;4982337;28;20280;-80
2021/11/12 13:24:32;;;;;;;6.30;4.25;;;;;;;;;;4987305;28;20631;-80
2021/11/12 13:27:02;;;;;;;6.22;4.28;;;;;;;;;;4988957;28;20571;-81
2021/11/12 13:29:30;;;;;;;4.00;3.60;;;;;;;;;;4986866;28;20201;-80
2021/11/12 13:32:01;;;;;;;5.45;4.90;;;;;;;;;;4990857;28;20196;-80
2021/11/12 13:34:28;;;;;;;4.90;4.15;;;;;;;;;;4984009;28;20201;-80
2021/11/12 13:36:55;;;;;;;6.10;4.50;;;;;;;;;;4986210;28;20193;-80
2021/11/12 13:39:23;;;;;;;4.90;4.10;;;;;;;;;;4982701;28;20205;-80
2021/11/12 13:41:51;;;;;;;5.93;4.20;;;;;;;;;;4989489;28;20196;-80
2021/11/12 13:44:21;;;;;;;3.95;3.60;;;;;;;;;;4972490;28;20228;-75
2021/11/12 13:46:49;;;;;;;4.03;3.60;;;;;;;;;;4976703;28;20201;-77
2021/11/12 13:49:27;;;;;;;5.15;3.83;;;;;;;;;;4988980;28;20203;-81
2021/11/12 13:51:54;;;;;;;4.72;3.97;;;;;;;;;;4990410;28;20201;-80
2021/11/12 13:54:21;;;;;;;5.72;5.13;;;;;;;;;;4988222;28;20208;-82
2021/11/12 13:56:48;;;;;;;3.70;3.40;;;;;;;;;;4991645;28;20606;-82
2021/11/12 13:59:16;;;;;;;4.22;3.83;;;;;;;;;;4987075;28;20193;-81
2021/11/12 14:01:44;;;;;;;3.67;3.38;;;;;;;;;;4990070;28;20197;-80
2021/11/12 14:04:21;;;;;;;4.57;3.95;;;;;;;;;;4991500;28;20220;-81
2021/11/12 14:06:49;;;;;;;4.70;4.13;;;;;;;;;;5003963;28;20191;-81
2021/11/12 14:09:18;;;;;;;4.47;4.07;;;;;;;;;;4996712;28;20201;-81
2021/11/12 14:11:45;;;;;;;5.80;4.30;;;;;;;;;;5006100;28;20200;-81
2021/11/12 14:14:17;;;;;;;4.78;3.65;;;;;;;;;;4991485;28;20201;-80
2021/11/12 14:16:51;;;;;;;4.95;4.45;;;;;;;;;;4987948;28;20243;-80
2021/11/12 14:19:48;;;;;;;4.15;3.45;;;;;;;;;;4985614;28;20195;-79
2021/11/12 14:22:28;;;;;;;5.15;3.83;;;;;;;;;;4994935;28;20193;-80
2021/11/12 14:25:09;;;;;;;4.38;3.70;;;;;;;;;;4994736;28;20208;-81
2021/11/12 14:27:38;;;;;;;5.65;3.65;;;;;;;;;;4994983;28;20201;-81
2021/11/12 14:35:49;;;;;;;4.22;3.85;;;;;;;;;;4991927;28;20572;-80
2021/11/12 14:38:22;;;;;;;4.82;3.88;;;;;;;;;;4993073;28;20199;-80
2021/11/12 14:41:08;;;;;;;4.07;3.67;;;;;;;;;;4975004;28;20201;-81
2021/11/12 14:46:27;;;;;;;4.18;3.65;;;;;;;;;;4984368;28;20602;-82
2021/11/12 14:49:07;;;;;;;3.90;3.60;;;;;;;;;;4994999;28;20232;-80
2021/11/12 14:51:36;;;;;;;5.05;3.45;;;;;;;;;;4994377;28;20201;-81
2021/11/12 14:54:05;;;;;;;6.03;3.55;;;;;;;;;;4992780;28;20209;-80
2021/11/12 14:56:32;;;;;;;3.35;2.63;;;;;;;;;;4993455;28;20232;-80
2021/11/12 14:59:01;;;;;;;4.47;3.53;;;;;;;;;;4981399;28;20198;-80
2021/11/12 15:01:31;;;;;;;4.80;3.30;;;;;;;;;;4986900;28;20228;-81
2021/11/12 15:04:00;;;;;;;4.13;3.70;;;;;;;;;;4993967;28;20236;-81
2021/11/12 15:06:28;;;;;;;4.00;3.60;;;;;;;;;;4994253;28;20193;-81
2021/11/12 15:08:57;;;;;;;4.78;3.80;;;;;;;;;;4994071;28;20239;-81
2021/11/12 15:11:27;;;;;;;3.67;3.33;;;;;;;;;;4991199;28;20571;-81
2021/11/12 15:14:02;;;;;;;3.67;3.15;;;;;;;;;;4994022;28;20293;-81
2021/11/12 15:16:30;;;;;;;3.75;3.38;;;;;;;;;;4987372;28;20667;-81
2021/11/12 15:18:58;;;;;;;4.20;2.60;;;;;;;;;;4988039;28;20193;-75
2021/11/12 15:21:29;;;;;;;4.35;3.42;;;;;;;;;;4985171;28;20193;-74
2021/11/12 15:24:02;;;;;;;3.58;2.90;;;;;;;;;;4983490;28;20620;-75
2021/11/12 15:29:14;;;;;;;3.28;2.65;;;;;;;;;;4960016;28;20588;-75
2021/11/12 15:31:51;;;;;;;3.47;3.17;;;;;;;;;;4994214;28;20203;-79
2021/11/12 15:34:19;;;;;;;3.20;2.83;;;;;;;;;;4984690;28;20205;-78
2021/11/12 15:36:55;;;;;;;5.03;3.20;;;;;;;;;;4985479;28;20201;-80
2021/11/12 15:39:31;;;;;;;3.85;2.75;;;;;;;;;;4985690;28;20199;-82
2021/11/12 15:44:43;;;;;;;4.63;4.05;;;;;;;;;;4992155;28;20799;-82
2021/11/12 15:47:20;;;;;;;4.82;4.25;;;;;;;;;;4991321;28;20196;-81
2021/11/12 15:49:49;;;;;;;3.53;3.05;;;;;;;;;;4989321;28;20299;-81
2021/11/12 15:52:21;;;;;;;3.75;3.38;;;;;;;;;;4985181;28;20193;-82
2021/11/12 15:54:58;;;;;;;6.18;4.40;;;;;;;;;;4991919;28;20409;-80
2021/11/12 15:57:53;;;;;;;3.65;3.40;;;;;;;;;;4993956;28;20259;-81
2021/11/12 16:00:28;;;;;;;3.50;2.88;;;;;;;;;;4986053;28;20287;-78
2021/11/12 16:06:17;;;;;;;5.80;3.65;;;;;;;;;;4993128;28;20213;-83
2021/11/12 16:08:57;;;;;;;3.58;3.13;;;;;;;;;;4991111;28;20619;-83
2021/11/12 16:11:36;;;;;;;7.03;3.83;;;;;;;;;;4983435;28;20607;-82
2021/11/12 16:14:07;;;;;;;3.28;2.95;;;;;;;;;;4992856;28;20224;-84
2021/11/12 16:17:07;;;;;;;4.32;3.92;;;;;;;;;;4992373;28;20200;-83
2021/11/12 16:19:38;;;;;;;4.57;3.35;;;;;;;;;;4990541;28;20193;-83
2021/11/12 16:27:34;;;;;;;5.25;4.57;;;;;;;;;;4989582;28;20193;-79
2021/11/12 16:30:04;;;;;;;5.18;3.95;;;;;;;;;;4982940;28;20202;-79
2021/11/12 16:32:38;;;;;;;6.32;4.03;;;;;;;;;;4988633;28;20189;-80
2021/11/12 16:35:06;;;;;;;5.82;4.13;;;;;;;;;;4986821;28;20641;-82
2021/11/12 16:37:33;;;;;;;6.10;3.97;;;;;;;;;;4985522;28;20185;-82
2021/11/12 16:40:05;;;;;;;3.88;3.47;;;;;;;;;;4991220;28;20200;-79
2021/11/12 16:42:43;;;;;;;4.20;3.90;;;;;;;;;;4990198;28;20233;-79
2021/11/12 16:45:16;;;;;;;4.60;3.97;;;;;;;;;;4988040;28;20220;-80
2021/11/12 16:47:56;;;;;;;5.35;4.47;;;;;;;;;;4988759;28;20206;-81
2021/11/12 16:50:31;;;;;;;4.60;4.10;;;;;;;;;;4986823;28;20201;-81
2021/11/12 16:53:09;;;;;;;5.15;4.22;;;;;;;;;;4989945;28;20570;-82
2021/11/12 16:58:30;;;;;;;5.28;4.50;;;;;;;;;;4984412;28;20624;-80
2021/11/12 17:03:57;;;;;;;5.22;3.83;;;;;;;;;;4988513;28;20251;-82
2021/11/12 17:06:26;;;;;;;5.70;5.20;;;;;;;;;;4990678;28;20222;-80
2021/11/12 17:09:10;;;;;;;5.25;4.35;;;;;;;;;;4987253;28;20287;-80
2021/11/12 17:11:42;;;;;;;4.65;4.20;;;;;;;;;;4987376;28;20219;-79
2021/11/12 17:20:01;;;;;;;5.50;4.65;;;;;;;;;;4984898;28;20336;-80
2021/11/12 17:47:13;;;;;;;4.25;3.75;;;;;;;;;;4988721;28;20717;-80
2021/11/12 17:49:54;;;;;;;4.72;3.75;;;;;;;;;;4989510;28;20204;-80
2021/11/12 17:52:44;;;;;;;5.43;3.70;;;;;;;;;;4973302;28;20541;-80
2021/11/12 18:03:34;;;;;;;5.60;5.10;;;;;;;;;;4994915;28;20208;-79
2021/11/12 18:06:04;;;;;;;4.68;4.22;;;;;;;;;;4991770;28;20294;-80
2021/11/12 18:22:14;;;;;;;6.93;5.03;;;;;;;;;;4966188;28;20840;-81
2021/11/12 21:45:35;;;;;;;6.13;5.53;;;;;;;;;;4984860;28;20267;-79
2021/11/12 21:48:03;;;;;;;7.63;6.65;;;;;;;;;;4991214;28;20201;-80
2021/11/12 21:50:32;;;;;;;6.45;5.60;;;;;;;;;;4989947;28;20282;-80
2021/11/12 21:52:59;;;;;;;8.68;5.97;;;;;;;;;;4980299;28;20325;-79
2021/11/12 21:55:26;;;;;;;7.70;5.65;;;;;;;;;;4986296;28;20216;-79
2021/11/12 21:57:53;;;;;;;7.00;5.55;;;;;;;;;;4987166;28;20204;-80
2021/11/12 22:00:21;;;;;;;7.65;5.72;;;;;;;;;;4987417;28;20197;-79
2021/11/12 22:02:48;;;;;;;8.32;5.82;;;;;;;;;;4985792;28;20200;-80
2021/11/12 22:05:15;;;;;;;6.97;5.47;;;;;;;;;;4990370;28;20717;-80
2021/11/12 22:07:43;;;;;;;6.18;5.07;;;;;;;;;;4990835;28;20200;-80
2021/11/12 22:10:10;;;;;;;6.72;6.05;;;;;;;;;;4985183;28;20219;-79
2021/11/12 22:12:37;;;;;;;6.35;5.75;;;;;;;;;;4984086;28;20563;-79
2021/11/12 22:15:05;;;;;;;6.38;5.60;;;;;;;;;;4988449;28;20552;-79
2021/11/12 22:17:32;;;;;;;10.18;7.00;;;;;;;;;;4989646;28;20240;-80
2021/11/12 22:19:59;;;;;;;5.93;5.43;;;;;;;;;;4988419;28;20193;-80
2021/11/12 22:22:27;;;;;;;6.43;5.30;;;;;;;;;;4991383;28;20196;-80
2021/11/12 22:24:55;;;;;;;5.75;5.25;;;;;;;;;;4982489;28;20251;-79
2021/11/12 22:27:22;;;;;;;8.00;5.80;;;;;;;;;;4988633;28;20623;-80
2021/11/12 22:29:49;;;;;;;6.82;6.18;;;;;;;;;;4989350;28;20189;-79
2021/11/12 22:32:16;;;;;;;6.72;5.90;;;;;;;;;;4978884;28;20686;-79
2021/11/12 22:34:43;;;;;;;7.00;5.82;;;;;;;;;;4978584;28;20189;-80
2021/11/12 22:37:10;;;;;;;5.88;5.25;;;;;;;;;;4990719;28;20573;-79
2021/11/12 22:39:37;;;;;;;7.07;6.00;;;;;;;;;;4990715;28;20196;-80
2021/11/12 22:42:06;;;;;;;10.43;5.85;;;;;;;;;;4993502;28;20208;-79
2021/11/12 22:44:34;;;;;;;6.85;5.97;;;;;;;;;;4993862;28;20545;-80
2021/11/12 22:47:01;;;;;;;7.28;6.43;;;;;;;;;;4992098;28;20229;-80
2021/11/12 22:49:28;;;;;;;6.45;5.75;;;;;;;;;;4993786;28;20671;-80
2021/11/12 22:51:55;;;;;;;7.00;5.15;;;;;;;;;;4993742;28;20680;-79